DLH407 EVRA-ULAA
Flight info
| Callsign | DLH407 |
|---|---|
| Flight time | N/A |
| Altitude | 39000 |
| Route | VANAG M990 VALGA DCT TUKMA P989 MEGAS/K0863F390 P989 BESNO T693 DISUP T821 MAKOG |
| Aircraft | B38M/M-SDE1FGHILORVWXY/HB1 |
Departure
| Time | N/A |
|---|---|
| Airport | Riga International Airport (EVRA) |
Arrival
| Time | 2026-04-28 19:06 |
|---|---|
| Airport | Talagi Airport (ULAA) |
| Time | Latitude | Longitude | Altitude | Speed | Heading |
|---|---|---|---|---|---|
| 2026-04-28 18:54 | 64.38050 | 40.63338 | 5001 ft | 254 kts | 66° |
| 2026-04-28 18:54 | 64.38773 | 40.67066 | 4939 ft | 254 kts | 66° |
| 2026-04-28 18:55 | 64.39494 | 40.70792 | 4876 ft | 254 kts | 66° |
| 2026-04-28 18:55 | 64.40214 | 40.74516 | 4814 ft | 254 kts | 66° |
| 2026-04-28 18:55 | 64.40927 | 40.78215 | 4752 ft | 253 kts | 66° |
| 2026-04-28 18:55 | 64.41647 | 40.81956 | 4689 ft | 253 kts | 66° |
| 2026-04-28 18:56 | 64.42348 | 40.85603 | 4614 ft | 240 kts | 66° |
| 2026-04-28 18:56 | 64.42991 | 40.88954 | 4674 ft | 215 kts | 66° |
| 2026-04-28 18:56 | 64.43569 | 40.91976 | 4589 ft | 197 kts | 66° |
| 2026-04-28 18:56 | 64.44102 | 40.94763 | 4481 ft | 182 kts | 66° |
| 2026-04-28 18:57 | 64.44595 | 40.97344 | 4390 ft | 168 kts | 66° |
| 2026-04-28 18:57 | 64.45051 | 40.99730 | 4325 ft | 159 kts | 66° |
| 2026-04-28 18:57 | 64.45500 | 41.02086 | 4305 ft | 159 kts | 66° |
| 2026-04-28 18:57 | 64.45945 | 41.04424 | 4293 ft | 160 kts | 66° |
| 2026-04-28 18:58 | 64.46396 | 41.06791 | 4268 ft | 160 kts | 66° |
| 2026-04-28 18:58 | 64.46843 | 41.09143 | 4249 ft | 159 kts | 66° |
| 2026-04-28 18:58 | 64.47314 | 41.11463 | 4214 ft | 160 kts | 62° |
| 2026-04-28 18:58 | 64.48129 | 41.13187 | 4057 ft | 161 kts | 33° |
| 2026-04-28 18:59 | 64.49160 | 41.13988 | 4105 ft | 158 kts | 16° |
| 2026-04-28 18:59 | 64.50247 | 41.14473 | 4104 ft | 159 kts | 10° |
| 2026-04-28 18:59 | 64.51341 | 41.14871 | 4061 ft | 159 kts | 8° |
| 2026-04-28 18:59 | 64.52433 | 41.15233 | 4014 ft | 159 kts | 8° |
| 2026-04-28 19:00 | 64.53528 | 41.15578 | 3971 ft | 159 kts | 7° |
| 2026-04-28 19:00 | 64.54620 | 41.15910 | 3930 ft | 157 kts | 7° |
| 2026-04-28 19:00 | 64.55699 | 41.16134 | 3831 ft | 155 kts | 2° |
| 2026-04-28 19:00 | 64.56658 | 41.15333 | 3584 ft | 143 kts | 331° |
| 2026-04-28 19:01 | 64.57294 | 41.13639 | 3392 ft | 138 kts | 307° |
| 2026-04-28 19:01 | 64.57653 | 41.11593 | 3245 ft | 136 kts | 290° |
| 2026-04-28 19:01 | 64.57881 | 41.09454 | 3084 ft | 136 kts | 283° |
| 2026-04-28 19:01 | 64.58072 | 41.07374 | 2937 ft | 130 kts | 282° |
| 2026-04-28 19:02 | 64.58272 | 41.05301 | 2740 ft | 130 kts | 282° |
| 2026-04-28 19:02 | 64.58440 | 41.03243 | 2546 ft | 129 kts | 280° |
| 2026-04-28 19:02 | 64.58570 | 41.01180 | 2316 ft | 127 kts | 278° |
| 2026-04-28 19:02 | 64.58677 | 40.99179 | 2063 ft | 123 kts | 277° |
| 2026-04-28 19:03 | 64.58776 | 40.97205 | 1866 ft | 123 kts | 276° |
| 2026-04-28 19:03 | 64.58873 | 40.95251 | 1694 ft | 123 kts | 276° |
| 2026-04-28 19:03 | 64.58970 | 40.93282 | 1533 ft | 122 kts | 276° |
| 2026-04-28 19:03 | 64.59066 | 40.91316 | 1377 ft | 122 kts | 276° |
| 2026-04-28 19:04 | 64.59162 | 40.89352 | 1226 ft | 122 kts | 276° |
| 2026-04-28 19:04 | 64.59258 | 40.87394 | 1079 ft | 122 kts | 276° |
| 2026-04-28 19:04 | 64.59353 | 40.85439 | 932 ft | 121 kts | 276° |
| 2026-04-28 19:04 | 64.59448 | 40.83489 | 789 ft | 121 kts | 276° |
| 2026-04-28 19:05 | 64.59543 | 40.81541 | 646 ft | 121 kts | 276° |
| 2026-04-28 19:05 | 64.59638 | 40.79597 | 503 ft | 121 kts | 276° |
| 2026-04-28 19:05 | 64.59733 | 40.77659 | 365 ft | 120 kts | 276° |
| 2026-04-28 19:05 | 64.59829 | 40.75719 | 217 ft | 120 kts | 276° |
| 2026-04-28 19:06 | 64.59934 | 40.73795 | 74 ft | 112 kts | 275° |
| 2026-04-28 19:06 | 64.59977 | 40.72856 | 74 ft | 73 kts | 276° |
| 2026-04-28 19:06 | 64.60032 | 40.71593 | 74 ft | 25 kts | 270° |
| 2026-04-28 19:06 | 64.60003 | 40.71331 | 74 ft | 5 kts | 193° |
| 2026-04-28 19:07 | 64.59947 | 40.71310 | 74 ft | 12 kts | 188° |
| 2026-04-28 19:07 | 64.59840 | 40.71283 | 74 ft | 19 kts | 186° |
| 2026-04-28 19:07 | 64.59744 | 40.71267 | 74 ft | 8 kts | 159° |
| 2026-04-28 19:07 | 64.59722 | 40.71368 | 74 ft | 9 kts | 97° |
| 2026-04-28 19:08 | 64.59712 | 40.71561 | 74 ft | 11 kts | 96° |
| 2026-04-28 19:08 | 64.59694 | 40.71658 | 74 ft | 4 kts | 158° |
| 2026-04-28 19:08 | 64.59667 | 40.71658 | 74 ft | 0 kts | 182° |